Rockland M P C, New York
Current Conditions -  °F | °C
As of 5:51 PM on Monday 22 Dec 2014 (Local Time) from KTEB Reporting Station
Light Rain Light Rain  
Wind Chill: 40°   Ceiling: 700
Heat Index: 43°   Visibility: 4mi
Dew Point: 40°   Wind: 5mph
Humidity: 89%   Direction: 70°ENE
Pressure: 30.21"   Gusts: NA
Location:  41.1138°N, 74.0789°W
Report Text: KTEB 222251Z 07004KT 4SM -RA BR OVC007 06/04 A3021 RMK AO2 SLP231 P0000 T00610044 $
Loading
Personal Weather Stations






























Interactive Weather Map New forecast layout! Learn more

10-Day Weather Forecast

Advertisements
Track Severe Weather on mobile